createdAt,value
2018-05-25T00:00:00.026Z,38.73
2018-05-25T00:02:31.222Z,37.33
2018-05-25T00:05:01.413Z,41.93
2018-05-25T00:07:31.740Z,38.97
2018-05-25T00:10:01.657Z,35.57
2018-05-25T00:12:32.012Z,41.70
2018-05-25T00:15:02.415Z,37.60
2018-05-25T00:17:33.023Z,42.20
2018-05-25T00:20:03.592Z,41.07
2018-05-25T00:22:34.044Z,35.27
2018-05-25T00:25:03.815Z,54.60
2018-05-25T00:27:34.099Z,40.23
2018-05-25T00:30:04.357Z,43.77
2018-05-25T00:32:34.259Z,46.73
2018-05-25T00:35:04.264Z,36.90
2018-05-25T00:37:34.920Z,44.30
2018-05-25T00:40:05.493Z,40.77
2018-05-25T00:42:36.106Z,42.37
2018-05-25T00:45:06.219Z,41.07
2018-05-25T00:47:36.688Z,38.77
2018-05-25T00:50:07.152Z,46.43
2018-05-25T00:52:37.762Z,38.97
2018-05-25T00:55:19.602Z,39.57
2018-05-25T00:57:50.307Z,43.20
2018-05-25T01:00:21.521Z,36.83
2018-05-25T01:02:51.870Z,44.43
2018-05-25T01:05:22.248Z,37.70
2018-05-25T01:07:52.410Z,43.47
2018-05-25T01:10:22.910Z,46.23
2018-05-25T01:12:52.725Z,41.67
2018-05-25T01:15:23.223Z,43.30
2018-05-25T01:17:53.675Z,35.13
2018-05-25T01:20:24.170Z,36.43
2018-05-25T01:22:54.351Z,42.80
2018-05-25T01:25:24.791Z,31.80
2018-05-25T01:27:55.150Z,38.67
2018-05-25T01:30:25.608Z,38.40
2018-05-25T01:32:56.428Z,44.03
2018-05-25T01:35:26.925Z,50.13
2018-05-25T01:37:58.234Z,37.33
2018-05-25T01:40:28.447Z,43.20
2018-05-25T01:42:58.884Z,36.60
2018-05-25T01:45:29.008Z,39.80
2018-05-25T01:47:59.355Z,35.73
2018-05-25T01:50:29.510Z,37.00
2018-05-25T01:53:00.046Z,40.33
2018-05-25T01:55:30.192Z,39.10
2018-05-25T01:58:00.506Z,34.67
2018-05-25T02:00:30.829Z,38.10
2018-05-25T02:03:01.029Z,41.03
2018-05-25T02:05:31.206Z,46.33
2018-05-25T02:08:01.552Z,38.93
2018-05-25T02:10:31.990Z,39.43
2018-05-25T02:13:01.764Z,34.17
2018-05-25T02:15:32.248Z,37.33
2018-05-25T02:18:03.193Z,39.53
2018-05-25T02:20:34.308Z,32.80
2018-05-25T02:23:04.156Z,33.57
2018-05-25T02:25:34.581Z,37.50
2018-05-25T02:28:04.988Z,31.57
2018-05-25T02:30:35.943Z,30.43
2018-05-25T02:33:06.495Z,32.50
2018-05-25T02:35:36.935Z,36.67
2018-05-25T02:38:07.260Z,28.50
2018-05-25T02:40:37.767Z,35.40
2018-05-25T02:43:08.287Z,31.20
2018-05-25T02:45:38.200Z,32.43
2018-05-25T02:48:09.077Z,33.00
2018-05-25T02:50:39.429Z,29.77
2018-05-25T02:53:09.715Z,30.17
2018-05-25T02:55:40.022Z,32.77
2018-05-25T02:58:09.755Z,34.33
2018-05-25T03:00:39.559Z,30.03
2018-05-25T03:03:09.300Z,24.77
2018-05-25T03:05:39.068Z,34.83
2018-05-25T03:08:08.795Z,37.50
2018-05-25T03:10:38.551Z,30.20
2018-05-25T03:13:08.309Z,31.00
2018-05-25T03:15:38.076Z,34.57
2018-05-25T03:18:07.867Z,38.53
2018-05-25T03:20:37.618Z,37.03
2018-05-25T03:23:07.403Z,36.00
2018-05-25T03:25:37.168Z,26.93
2018-05-25T03:28:06.902Z,34.70
2018-05-25T03:30:36.711Z,37.90
2018-05-25T03:33:06.443Z,33.03
2018-05-25T03:35:36.152Z,30.27
2018-05-25T03:38:05.927Z,33.03
2018-05-25T03:40:35.640Z,29.70
2018-05-25T03:43:05.468Z,29.87
2018-05-25T03:45:35.172Z,27.20
2018-05-25T03:48:04.861Z,29.27
2018-05-25T03:50:34.623Z,31.77
2018-05-25T03:53:04.333Z,24.03
2018-05-25T03:55:34.060Z,29.83
2018-05-25T03:58:03.797Z,28.47
2018-05-25T04:00:45.366Z,33.37
2018-05-25T04:03:15.109Z,29.20
2018-05-25T04:05:44.844Z,27.80
2018-05-25T04:08:14.562Z,22.13
2018-05-25T04:10:44.283Z,25.67
2018-05-25T04:13:13.966Z,25.73
2018-05-25T04:15:43.677Z,23.67
2018-05-25T04:18:13.407Z,26.93
2018-05-25T04:20:43.100Z,25.43
2018-05-25T04:23:12.809Z,24.63
2018-05-25T04:25:42.536Z,19.60
2018-05-25T04:28:12.243Z,23.87
2018-05-25T04:30:41.939Z,24.53
2018-05-25T04:33:11.657Z,21.87
2018-05-25T04:35:41.389Z,21.20
2018-05-25T04:38:11.165Z,21.80
2018-05-25T04:40:40.881Z,26.53
2018-05-25T04:43:10.620Z,24.17
2018-05-25T04:45:40.377Z,24.73
2018-05-25T04:48:10.111Z,24.23
2018-05-25T04:50:39.824Z,24.57
2018-05-25T04:53:09.633Z,25.13
2018-05-25T04:55:39.371Z,26.63
2018-05-25T04:58:09.116Z,21.90
2018-05-25T05:00:38.908Z,18.10
2018-05-25T05:03:08.636Z,22.70
2018-05-25T05:05:38.438Z,20.37
2018-05-25T05:08:08.192Z,19.03
2018-05-25T05:10:37.998Z,20.63
2018-05-25T05:13:07.767Z,24.93
2018-05-25T05:15:37.509Z,24.23
2018-05-25T05:18:07.273Z,18.33
2018-05-25T05:20:37.092Z,13.97
2018-05-25T05:23:07.000Z,17.07
2018-05-25T05:25:36.811Z,17.43
2018-05-25T05:28:06.550Z,15.57
2018-05-25T05:30:36.351Z,14.03
2018-05-25T05:33:06.138Z,13.33
2018-05-25T05:35:35.945Z,21.67
2018-05-25T05:38:05.677Z,15.03
2018-05-25T05:40:35.424Z,17.30
2018-05-25T05:43:05.241Z,19.67
2018-05-25T05:45:34.957Z,15.43
2018-05-25T05:48:04.710Z,15.27
2018-05-25T05:50:34.729Z,16.20
2018-05-25T05:53:04.596Z,15.37
2018-05-25T05:55:34.391Z,14.70
2018-05-25T05:58:04.150Z,14.90
2018-05-25T06:00:33.913Z,15.07
2018-05-25T06:03:03.744Z,15.47
2018-05-25T06:05:33.538Z,14.93
2018-05-25T06:08:03.285Z,13.23
2018-05-25T06:10:33.003Z,15.20
2018-05-25T06:13:02.761Z,15.00
2018-05-25T06:15:32.551Z,18.17
2018-05-25T06:18:02.305Z,12.60
2018-05-25T06:20:32.048Z,13.20
2018-05-25T06:23:01.823Z,15.40
2018-05-25T06:25:31.563Z,18.07
2018-05-25T06:28:01.281Z,11.13
2018-05-25T06:30:31.006Z,13.40
2018-05-25T06:33:00.744Z,11.60
2018-05-25T06:35:30.521Z,13.97
2018-05-25T06:38:00.220Z,12.90
2018-05-25T06:40:29.980Z,12.57
2018-05-25T06:42:59.685Z,13.67
2018-05-25T06:45:29.476Z,11.07
2018-05-25T06:47:59.292Z,15.23
2018-05-25T06:50:29.077Z,14.30
2018-05-25T06:52:58.866Z,15.00
2018-05-25T06:55:28.655Z,12.67
2018-05-25T06:57:58.423Z,11.27
2018-05-25T07:00:28.192Z,15.63
2018-05-25T07:02:57.897Z,11.57
2018-05-25T07:05:27.660Z,11.17
2018-05-25T07:07:57.445Z,17.23
2018-05-25T07:10:27.196Z,10.60
2018-05-25T07:12:57.089Z,12.43
2018-05-25T07:15:26.829Z,13.23
2018-05-25T07:17:56.562Z,11.63
2018-05-25T07:20:26.311Z,12.07
2018-05-25T07:22:56.012Z,12.43
2018-05-25T07:25:25.783Z,11.27
2018-05-25T07:27:55.490Z,10.63
2018-05-25T07:30:25.217Z,9.73
2018-05-25T07:32:55.024Z,13.77
2018-05-25T07:35:24.748Z,9.83
2018-05-25T07:37:54.468Z,11.93
2018-05-25T07:40:24.164Z,9.60
2018-05-25T07:42:53.869Z,69.07
2018-05-25T07:45:23.642Z,12.10
2018-05-25T07:47:53.449Z,16.20
2018-05-25T07:50:23.212Z,13.13
2018-05-25T07:52:52.974Z,30.57
2018-05-25T07:55:22.729Z,22.37
2018-05-25T07:57:52.403Z,11.40
2018-05-25T08:00:22.229Z,10.47
2018-05-25T08:02:52.034Z,14.70
2018-05-25T08:05:21.837Z,8.13
2018-05-25T08:07:51.587Z,11.40
2018-05-25T08:10:21.320Z,9.33
2018-05-25T08:12:51.075Z,14.00
2018-05-25T08:15:20.871Z,10.20
2018-05-25T08:17:50.601Z,9.30
2018-05-25T08:20:20.345Z,9.70
2018-05-25T08:22:50.088Z,8.93
2018-05-25T08:25:19.886Z,13.60
2018-05-25T08:27:49.593Z,8.00
2018-05-25T08:30:19.382Z,7.90
2018-05-25T08:32:49.125Z,9.20
2018-05-25T08:35:18.875Z,11.10
2018-05-25T08:37:48.647Z,6.73
2018-05-25T08:40:18.355Z,9.40
2018-05-25T08:42:48.125Z,8.57
2018-05-25T08:45:17.893Z,10.87
2018-05-25T08:47:47.660Z,8.67
2018-05-25T08:50:17.395Z,8.90
2018-05-25T08:52:47.159Z,7.17
2018-05-25T08:55:16.921Z,9.57
2018-05-25T08:57:46.672Z,29.63
2018-05-25T09:00:16.387Z,8.57
2018-05-25T09:02:46.173Z,9.47
2018-05-25T09:05:15.948Z,11.83
2018-05-25T09:07:45.719Z,22.87
2018-05-25T09:10:15.471Z,19.73
2018-05-25T09:12:45.227Z,14.63
2018-05-25T09:15:14.987Z,14.00
2018-05-25T09:17:44.830Z,14.23
2018-05-25T09:20:14.532Z,13.63
2018-05-25T09:22:44.300Z,12.50
2018-05-25T09:25:14.064Z,11.13
2018-05-25T09:27:43.780Z,14.67
2018-05-25T09:30:13.556Z,11.73
2018-05-25T09:32:43.296Z,11.90
2018-05-25T09:35:13.037Z,16.07
2018-05-25T09:37:42.813Z,7.73
2018-05-25T09:40:12.535Z,9.73
2018-05-25T09:42:42.292Z,7.30
2018-05-25T09:45:12.013Z,9.07
2018-05-25T09:47:41.801Z,8.83
2018-05-25T09:50:11.583Z,6.00
2018-05-25T09:52:48.365Z,7.50
2018-05-25T09:55:18.178Z,7.97
2018-05-25T09:57:54.852Z,9.77
2018-05-25T10:00:25.401Z,9.40
2018-05-25T10:02:55.134Z,7.53
2018-05-25T10:05:24.859Z,7.27
2018-05-25T10:07:54.604Z,9.07
2018-05-25T10:10:24.316Z,7.40
2018-05-25T10:12:54.125Z,10.10
2018-05-25T10:15:23.936Z,7.67
2018-05-25T10:17:53.679Z,8.50
2018-05-25T10:20:23.439Z,7.87
2018-05-25T10:22:53.178Z,8.13
2018-05-25T10:25:22.943Z,8.87
2018-05-25T10:27:52.781Z,8.53
2018-05-25T10:30:22.521Z,7.57
2018-05-25T10:32:52.354Z,7.43
2018-05-25T10:35:22.073Z,8.20
2018-05-25T10:37:51.820Z,8.40
2018-05-25T10:40:21.576Z,8.70
2018-05-25T10:42:51.314Z,9.97
2018-05-25T10:45:21.128Z,7.97
2018-05-25T10:47:50.867Z,6.93
2018-05-25T10:50:20.611Z,7.00
2018-05-25T10:52:50.384Z,8.47
2018-05-25T10:55:20.117Z,8.87
2018-05-25T10:57:49.835Z,8.77
2018-05-25T11:00:19.609Z,8.97
2018-05-25T11:02:49.343Z,6.90
2018-05-25T11:05:19.125Z,11.97
2018-05-25T11:07:48.874Z,10.50
2018-05-25T11:10:18.604Z,9.20
2018-05-25T11:12:48.362Z,9.73
2018-05-25T11:15:18.131Z,7.77
2018-05-25T11:17:47.856Z,19.00
2018-05-25T11:20:17.589Z,12.43
2018-05-25T11:22:47.424Z,8.23
2018-05-25T11:25:17.213Z,7.37
2018-05-25T11:27:47.150Z,7.43
2018-05-25T11:30:16.986Z,10.50
2018-05-25T11:32:46.731Z,8.80
2018-05-25T11:35:16.523Z,7.67
2018-05-25T11:37:46.444Z,7.73
2018-05-25T11:40:16.160Z,8.17
2018-05-25T11:42:45.922Z,8.83
2018-05-25T11:45:15.778Z,8.50
2018-05-25T11:47:45.595Z,10.27
2018-05-25T11:50:15.434Z,8.73
2018-05-25T11:52:45.228Z,7.00
2018-05-25T11:55:15.011Z,6.33
2018-05-25T11:57:44.743Z,8.53
2018-05-25T12:00:14.481Z,10.63
2018-05-25T12:02:44.263Z,7.77
2018-05-25T12:05:14.001Z,8.53
2018-05-25T12:07:43.838Z,8.53
2018-05-25T12:10:13.619Z,11.13
2018-05-25T12:12:43.366Z,10.57
2018-05-25T12:15:13.151Z,10.20
2018-05-25T12:17:42.926Z,9.93
2018-05-25T12:20:12.685Z,9.53
2018-05-25T12:22:42.506Z,12.07
2018-05-25T12:25:12.296Z,9.20
2018-05-25T12:27:42.058Z,12.47
2018-05-25T12:30:11.839Z,9.63
2018-05-25T12:32:41.712Z,8.00
2018-05-25T12:35:11.480Z,7.10
2018-05-25T12:37:41.223Z,6.27
2018-05-25T12:40:11.096Z,7.93
2018-05-25T12:42:40.923Z,6.90
2018-05-25T12:45:12.709Z,5.87
2018-05-25T12:47:42.485Z,8.47
2018-05-25T12:50:12.318Z,6.33
2018-05-25T12:52:42.083Z,7.60
2018-05-25T12:55:11.797Z,7.70
2018-05-25T12:57:41.513Z,7.23
2018-05-25T13:00:11.238Z,8.60
2018-05-25T13:02:40.954Z,12.07
2018-05-25T13:05:10.751Z,8.33
2018-05-25T13:07:40.453Z,5.17
2018-05-25T13:10:10.215Z,6.10
2018-05-25T13:12:40.052Z,6.17
2018-05-25T13:15:09.800Z,7.07
2018-05-25T13:17:39.578Z,8.37
2018-05-25T13:20:09.296Z,9.53
2018-05-25T13:22:39.104Z,6.80
2018-05-25T13:25:08.864Z,9.07
2018-05-25T13:27:38.560Z,7.10
2018-05-25T13:30:08.328Z,8.20
2018-05-25T13:32:38.121Z,6.77
2018-05-25T13:35:07.850Z,9.50
2018-05-25T13:37:37.641Z,8.67
2018-05-25T13:40:07.429Z,9.63
2018-05-25T13:42:37.310Z,17.87
2018-05-25T13:45:07.210Z,19.77
2018-05-25T13:47:37.030Z,13.63
2018-05-25T13:50:06.788Z,10.43
2018-05-25T13:52:36.495Z,6.93
2018-05-25T13:55:06.298Z,9.20
2018-05-25T13:57:36.057Z,8.17
2018-05-25T14:00:05.779Z,7.97
2018-05-25T14:02:35.558Z,8.17
2018-05-25T14:05:05.289Z,6.63
2018-05-25T14:07:35.014Z,8.57
2018-05-25T14:10:04.815Z,13.23
2018-05-25T14:12:34.527Z,8.90
2018-05-25T14:15:04.337Z,8.37
2018-05-25T14:17:34.053Z,9.20
2018-05-25T14:20:03.820Z,15.10
2018-05-25T14:22:33.588Z,6.83
2018-05-25T14:25:03.364Z,11.83
2018-05-25T14:27:33.091Z,10.87
2018-05-25T14:30:02.842Z,7.03
2018-05-25T14:32:32.591Z,8.00
2018-05-25T14:35:02.418Z,6.27
2018-05-25T14:37:32.112Z,11.17
2018-05-25T14:40:01.965Z,11.03
2018-05-25T14:42:31.833Z,8.87
2018-05-25T14:45:01.561Z,7.07
2018-05-25T14:47:31.386Z,11.80
2018-05-25T14:50:01.131Z,12.03
2018-05-25T14:52:30.849Z,13.20
2018-05-25T14:55:00.822Z,9.23
2018-05-25T14:57:30.576Z,10.03
2018-05-25T15:00:00.356Z,18.57
2018-05-25T15:02:30.203Z,12.90
2018-05-25T15:04:59.924Z,11.90
2018-05-25T15:07:29.687Z,13.47
2018-05-25T15:09:59.402Z,11.73
2018-05-25T15:12:29.158Z,12.13
2018-05-25T15:14:58.928Z,18.00
2018-05-25T15:17:28.851Z,17.50
2018-05-25T15:19:58.658Z,14.70
2018-05-25T15:22:28.392Z,16.33
2018-05-25T15:24:58.529Z,16.33
2018-05-25T15:27:28.817Z,13.50
2018-05-25T15:30:00.438Z,17.77
2018-05-25T15:32:30.254Z,14.60
2018-05-25T15:35:00.197Z,13.60
2018-05-25T15:37:30.647Z,15.67
2018-05-25T15:40:00.522Z,19.23
2018-05-25T15:42:30.271Z,14.50
2018-05-25T15:45:00.080Z,12.70
2018-05-25T15:47:29.830Z,15.17
2018-05-25T15:49:59.580Z,14.77
2018-05-25T15:52:29.331Z,11.93
2018-05-25T15:54:59.081Z,13.17
2018-05-25T15:57:28.834Z,14.20
2018-05-25T15:59:58.588Z,12.63
2018-05-25T16:02:28.373Z,11.63
2018-05-25T16:04:58.161Z,12.60
2018-05-25T16:07:27.898Z,12.10
2018-05-25T16:09:57.605Z,15.20
2018-05-25T16:12:27.378Z,12.00
2018-05-25T16:14:57.101Z,12.67
2018-05-25T16:17:26.893Z,13.47
2018-05-25T16:19:56.674Z,13.23
2018-05-25T16:22:26.403Z,11.40
2018-05-25T16:24:56.392Z,12.70
2018-05-25T16:27:26.112Z,14.27
2018-05-25T16:29:55.875Z,11.40
2018-05-25T16:32:25.607Z,14.47
2018-05-25T16:34:55.312Z,16.63
2018-05-25T16:37:25.110Z,13.90
2018-05-25T16:39:54.835Z,13.10
2018-05-25T16:42:24.583Z,15.03
2018-05-25T16:44:54.361Z,13.87
2018-05-25T16:47:24.087Z,12.33
2018-05-25T16:49:53.830Z,13.03
2018-05-25T16:52:23.646Z,14.43
2018-05-25T16:54:53.387Z,20.90
2018-05-25T16:57:23.162Z,18.27
2018-05-25T16:59:52.906Z,15.03
2018-05-25T17:02:22.669Z,15.57
2018-05-25T17:04:52.401Z,15.23
2018-05-25T17:07:22.131Z,15.53
2018-05-25T17:09:51.900Z,18.37
2018-05-25T17:12:21.674Z,16.63
2018-05-25T17:14:51.439Z,18.83
2018-05-25T17:17:21.223Z,20.33
2018-05-25T17:19:50.944Z,15.97
2018-05-25T17:22:20.728Z,17.37
2018-05-25T17:24:50.458Z,16.83
2018-05-25T17:27:20.164Z,15.63
2018-05-25T17:29:49.942Z,17.90
2018-05-25T17:32:19.681Z,15.50
2018-05-25T17:34:49.489Z,14.67
2018-05-25T17:37:19.230Z,16.37
2018-05-25T17:39:48.961Z,16.03
2018-05-25T17:42:18.757Z,17.90
2018-05-25T17:44:48.513Z,16.27
2018-05-25T17:47:18.277Z,20.93
2018-05-25T17:49:48.057Z,17.40
2018-05-25T17:52:17.805Z,15.90
2018-05-25T17:54:47.592Z,15.83
2018-05-25T17:57:17.329Z,19.07
2018-05-25T17:59:47.068Z,17.17
2018-05-25T18:02:16.825Z,17.03
2018-05-25T18:04:46.559Z,18.83
2018-05-25T18:07:16.279Z,22.40
2018-05-25T18:09:46.044Z,19.30
2018-05-25T18:12:15.748Z,19.33
2018-05-25T18:14:45.516Z,21.03
2018-05-25T18:17:15.242Z,20.00
2018-05-25T18:19:44.944Z,21.73
2018-05-25T18:22:14.727Z,19.33
2018-05-25T18:24:44.476Z,21.83
2018-05-25T18:27:14.350Z,19.73
2018-05-25T18:29:44.044Z,18.20
2018-05-25T18:32:13.796Z,18.13
2018-05-25T18:34:43.543Z,18.10
2018-05-25T18:37:13.252Z,20.40
2018-05-25T18:39:42.977Z,20.53
2018-05-25T18:42:12.765Z,17.77
2018-05-25T18:44:42.499Z,15.90
2018-05-25T18:47:12.266Z,15.37
2018-05-25T18:49:42.023Z,17.97
2018-05-25T18:52:11.742Z,15.80
2018-05-25T18:54:41.476Z,16.73
2018-05-25T18:57:11.205Z,19.07
2018-05-25T18:59:41.016Z,15.33
2018-05-25T19:02:10.780Z,16.93
2018-05-25T19:04:40.790Z,14.57
2018-05-25T19:07:10.625Z,17.30
2018-05-25T19:09:40.625Z,18.50
2018-05-25T19:12:10.412Z,16.07
2018-05-25T19:14:40.289Z,18.20
2018-05-25T19:17:10.060Z,17.77
2018-05-25T19:19:39.824Z,20.10
2018-05-25T19:22:09.608Z,16.23
2018-05-25T19:24:39.398Z,19.37
2018-05-25T19:27:09.085Z,17.67
2018-05-25T19:29:38.826Z,21.23
2018-05-25T19:32:08.626Z,18.50
2018-05-25T19:34:38.365Z,22.00
2018-05-25T19:37:09.057Z,17.57
2018-05-25T19:39:40.057Z,19.27
2018-05-25T19:42:10.844Z,20.03
2018-05-25T19:44:41.498Z,20.17
2018-05-25T19:47:11.903Z,21.53
2018-05-25T19:49:42.475Z,23.17
2018-05-25T19:52:14.196Z,22.70
2018-05-25T19:54:45.432Z,24.83
2018-05-25T19:57:16.200Z,25.53
2018-05-25T19:59:46.819Z,25.80
2018-05-25T20:02:17.794Z,32.00
2018-05-25T20:04:48.134Z,29.07
2018-05-25T20:07:19.178Z,31.97
2018-05-25T20:09:50.282Z,30.87
2018-05-25T20:12:21.139Z,28.80
2018-05-25T20:14:51.582Z,26.57
2018-05-25T20:17:21.454Z,23.87
2018-05-25T20:19:51.800Z,30.07
2018-05-25T20:22:22.582Z,29.67
2018-05-25T20:24:53.445Z,27.80
2018-05-25T20:27:24.314Z,32.80
2018-05-25T20:29:55.146Z,28.47
2018-05-25T20:32:26.220Z,30.90
2018-05-25T20:34:56.788Z,34.50
2018-05-25T20:37:27.259Z,33.97
2018-05-25T20:39:57.843Z,31.93
2018-05-25T20:42:28.016Z,33.67
2018-05-25T20:44:58.264Z,32.23
2018-05-25T20:47:28.411Z,32.17
2018-05-25T20:49:58.284Z,35.23
2018-05-25T20:52:28.485Z,37.37
2018-05-25T20:54:58.702Z,32.73
2018-05-25T20:57:28.930Z,34.03
2018-05-25T20:59:59.149Z,37.80
2018-05-25T21:02:29.309Z,32.73
2018-05-25T21:04:59.731Z,31.23
2018-05-25T21:07:29.757Z,30.83
2018-05-25T21:10:00.128Z,38.80
2018-05-25T21:12:30.505Z,33.90
2018-05-25T21:15:00.768Z,34.07
2018-05-25T21:17:31.193Z,29.40
2018-05-25T21:20:01.140Z,28.70
2018-05-25T21:22:31.545Z,28.07
2018-05-25T21:25:02.123Z,27.93
2018-05-25T21:27:32.856Z,27.90
2018-05-25T21:30:02.960Z,25.43
2018-05-25T21:32:33.168Z,25.27
2018-05-25T21:35:03.612Z,25.90
2018-05-25T21:37:34.137Z,23.80
2018-05-25T21:40:04.615Z,28.43
2018-05-25T21:42:34.975Z,30.23
2018-05-25T21:45:05.528Z,28.87
2018-05-25T21:47:35.740Z,28.93
2018-05-25T21:50:06.063Z,30.10
2018-05-25T21:52:36.490Z,31.33
2018-05-25T21:55:06.941Z,27.80
2018-05-25T21:57:37.347Z,30.97
2018-05-25T22:00:07.590Z,30.73
2018-05-25T22:02:37.893Z,27.53
2018-05-25T22:05:08.450Z,35.83
2018-05-25T22:07:38.253Z,31.97
2018-05-25T22:10:08.733Z,31.73
2018-05-25T22:12:38.902Z,31.47
2018-05-25T22:15:09.485Z,28.63
2018-05-25T22:17:39.707Z,27.67
2018-05-25T22:20:10.172Z,31.00
2018-05-25T22:22:40.625Z,30.13
2018-05-25T22:25:11.236Z,35.27
2018-05-25T22:27:41.436Z,32.33
2018-05-25T22:30:12.084Z,33.23
2018-05-25T22:32:42.289Z,31.70
2018-05-25T22:35:13.153Z,35.03
2018-05-25T22:37:43.288Z,35.97
2018-05-25T22:40:13.589Z,28.73
2018-05-25T22:42:55.652Z,31.87
2018-05-25T22:45:37.592Z,30.40
2018-05-25T22:48:19.777Z,28.63
2018-05-25T22:51:01.511Z,30.83
2018-05-25T22:53:36.761Z,34.43
2018-05-25T22:56:06.858Z,32.10
2018-05-25T22:58:37.416Z,33.37
2018-05-25T23:01:08.958Z,33.33
2018-05-25T23:03:39.342Z,33.17
2018-05-25T23:06:09.831Z,34.20
2018-05-25T23:08:40.222Z,33.97
2018-05-25T23:11:10.360Z,35.23
2018-05-25T23:13:40.894Z,26.87
2018-05-25T23:16:11.113Z,34.07
2018-05-25T23:18:41.464Z,31.90
2018-05-25T23:21:12.085Z,25.63
2018-05-25T23:23:42.596Z,24.67
2018-05-25T23:26:12.834Z,27.97
2018-05-25T23:28:43.330Z,38.40
2018-05-25T23:31:13.393Z,31.43
2018-05-25T23:33:43.532Z,30.23
2018-05-25T23:36:13.958Z,31.50
2018-05-25T23:38:44.046Z,29.00
2018-05-25T23:41:14.082Z,25.43
2018-05-25T23:43:44.408Z,28.83
2018-05-25T23:46:14.867Z,31.13
2018-05-25T23:48:45.062Z,27.83
2018-05-25T23:51:15.502Z,31.27
2018-05-25T23:53:46.251Z,28.00
2018-05-25T23:56:16.550Z,29.53
2018-05-25T23:58:47.008Z,32.03
